Time;durP1;ratioP1;P1;durP2;ratioP2;P2;SDS_P1;SDS_P2;PMS_P1;PMS_P2;Temp;Humidity;BMP_temperature;BMP_pressure;BME280_temperature;BME280_humidity;BME280_pressure;Samples;Min_cycle;Max_cycle;Signal;HPM_P1;HPM_P2
2022/06/24 00:01:51;;;;;;;8.08;5.90;;;27.80;96.20;;;;;;1857132;76;21148;-78
2022/06/24 00:04:25;;;;;;;9.83;6.10;;;27.90;96.10;;;;;;1858604;76;21111;-79
2022/06/24 00:06:57;;;;;;;10.53;6.90;;;27.90;96.00;;;;;;1849568;77;21663;-78
2022/06/24 00:09:30;;;;;;;10.98;6.30;;;28.00;96.00;;;;;;1871110;76;22211;-78
2022/06/24 00:12:03;;;;;;;10.15;6.35;;;28.00;95.90;;;;;;1849795;76;21084;-78
2022/06/24 00:14:36;;;;;;;7.40;6.53;;;28.00;95.80;;;;;;1855263;76;21136;-78
2022/06/24 00:17:10;;;;;;;8.68;7.15;;;28.00;95.70;;;;;;1861595;76;21645;-79
2022/06/24 00:19:43;;;;;;;8.30;6.85;;;28.00;95.80;;;;;;1863002;76;21134;-80
2022/06/24 00:22:14;;;;;;;9.13;6.65;;;27.90;96.00;;;;;;1859403;76;21201;-79
2022/06/24 00:24:45;;;;;;;10.25;6.70;;;28.00;95.70;;;;;;1852050;76;21462;-80
2022/06/24 00:27:19;;;;;;;11.33;7.40;;;28.00;95.70;;;;;;1851902;76;21143;-81
2022/06/24 00:29:51;;;;;;;8.95;6.95;;;28.00;95.90;;;;;;1858083;76;21081;-80
2022/06/24 00:32:24;;;;;;;8.85;6.87;;;28.10;95.90;;;;;;1858824;76;21633;-81
2022/06/24 00:34:58;;;;;;;8.95;7.10;;;28.10;95.90;;;;;;1860472;76;21241;-81
2022/06/24 00:37:31;;;;;;;9.05;7.00;;;28.10;95.90;;;;;;1873263;76;21136;-81
2022/06/24 00:40:05;;;;;;;8.58;6.90;;;28.10;96.00;;;;;;1876309;76;21123;-81
2022/06/24 00:42:38;;;;;;;8.73;6.20;;;28.20;95.70;;;;;;1858841;76;21194;-81
2022/06/24 00:45:11;;;;;;;10.45;6.35;;;28.20;95.70;;;;;;1862092;76;21124;-81
2022/06/24 00:47:44;;;;;;;9.88;6.20;;;28.30;95.60;;;;;;1875715;76;21611;-81
2022/06/24 00:50:17;;;;;;;10.80;7.47;;;28.30;95.40;;;;;;1832729;78;21119;-81
2022/06/24 00:52:49;;;;;;;8.25;6.12;;;28.40;95.60;;;;;;1864097;76;21225;-81
2022/06/24 00:55:22;;;;;;;8.83;6.42;;;28.40;95.40;;;;;;1861049;76;21148;-82
2022/06/24 00:57:54;;;;;;;7.90;5.80;;;28.50;95.30;;;;;;1877467;76;21089;-81
2022/06/24 01:00:27;;;;;;;8.08;5.85;;;28.60;95.20;;;;;;1874492;76;21127;-82
2022/06/24 01:03:00;;;;;;;10.80;6.37;;;28.70;95.20;;;;;;1881244;76;21081;-81
2022/06/24 01:05:34;;;;;;;9.00;5.83;;;28.80;95.00;;;;;;1886064;76;21709;-81
2022/06/24 01:08:07;;;;;;;11.12;6.42;;;28.80;94.70;;;;;;1879685;76;21140;-81
2022/06/24 01:10:39;;;;;;;10.78;6.58;;;28.80;94.60;;;;;;1866864;76;21084;-81
2022/06/24 01:13:11;;;;;;;9.20;5.62;;;28.90;94.60;;;;;;1873165;76;21217;-80
2022/06/24 01:15:42;;;;;;;9.98;6.42;;;28.90;94.50;;;;;;1864311;76;21168;-80
2022/06/24 01:18:13;;;;;;;6.60;5.25;;;29.00;94.60;;;;;;1854464;76;21591;-79
2022/06/24 01:20:44;;;;;;;6.92;6.12;;;29.00;94.50;;;;;;1876111;76;21135;-81
2022/06/24 01:23:18;;;;;;;10.53;6.05;;;29.10;94.30;;;;;;1864321;76;22066;-80
2022/06/24 01:25:49;;;;;;;10.25;5.85;;;29.20;94.10;;;;;;1867536;76;21265;-80
2022/06/24 01:28:20;;;;;;;9.15;6.20;;;29.30;93.90;;;;;;1863807;76;21110;-80
2022/06/24 01:30:51;;;;;;;8.70;6.47;;;29.30;93.60;;;;;;1874917;76;21595;-81
2022/06/24 01:33:22;;;;;;;8.08;6.17;;;29.40;93.50;;;;;;1871479;76;21925;-80
2022/06/24 01:35:52;;;;;;;8.83;6.33;;;29.50;93.60;;;;;;1876702;76;21545;-80
2022/06/24 01:38:23;;;;;;;7.60;5.67;;;29.60;93.70;;;;;;1864683;76;21175;-80
2022/06/24 01:40:55;;;;;;;8.88;5.75;;;29.70;93.50;;;;;;1863781;75;21081;-81
2022/06/24 01:43:25;;;;;;;9.10;6.62;;;29.90;93.20;;;;;;1888401;75;21154;-80
2022/06/24 01:45:56;;;;;;;8.75;6.33;;;30.00;92.70;;;;;;1883742;75;21975;-80
2022/06/24 01:48:27;;;;;;;7.80;5.87;;;30.00;92.70;;;;;;1883941;75;21159;-80
2022/06/24 01:50:58;;;;;;;11.95;6.50;;;30.10;92.60;;;;;;1877969;75;21606;-81
2022/06/24 01:53:29;;;;;;;8.65;5.90;;;30.20;92.50;;;;;;1884768;75;21111;-80
2022/06/24 01:56:00;;;;;;;8.93;5.58;;;30.20;92.40;;;;;;1882470;75;21138;-81
2022/06/24 01:58:31;;;;;;;10.48;5.35;;;30.30;92.20;;;;;;1885340;75;21100;-81
2022/06/24 02:01:02;;;;;;;8.63;5.50;;;30.40;92.10;;;;;;1882819;75;21123;-81
2022/06/24 02:03:34;;;;;;;8.53;5.00;;;30.50;92.00;;;;;;1883665;75;21198;-81
2022/06/24 02:06:08;;;;;;;7.08;4.90;;;30.60;91.30;;;;;;1880473;75;21096;-80
2022/06/24 02:08:41;;;;;;;10.58;5.25;;;30.70;91.50;;;;;;1882848;75;21120;-81
2022/06/24 02:13:49;;;;;;;10.40;5.30;;;30.90;91.00;;;;;;1880045;75;21206;-81
2022/06/24 02:16:21;;;;;;;11.22;5.60;;;31.00;90.70;;;;;;1877945;75;22170;-81
2022/06/24 02:18:52;;;;;;;8.50;5.62;;;31.10;90.50;;;;;;1874398;75;21080;-83
2022/06/24 02:21:24;;;;;;;6.87;4.97;;;31.10;90.40;;;;;;1880618;75;21111;-83
2022/06/24 02:23:55;;;;;;;8.43;5.03;;;31.20;90.30;;;;;;1895108;75;21567;-83
2022/06/24 02:26:26;;;;;;;6.12;5.20;;;31.10;90.50;;;;;;1875088;75;21200;-82
2022/06/24 02:28:58;;;;;;;8.68;5.33;;;31.10;90.70;;;;;;1870648;75;21127;-82
2022/06/24 02:31:28;;;;;;;8.50;5.03;;;31.20;90.50;;;;;;1881022;75;21173;-80
2022/06/24 02:34:00;;;;;;;9.98;5.53;;;31.30;90.40;;;;;;1868786;75;21701;-79
2022/06/24 02:36:30;;;;;;;9.13;6.50;;;31.30;90.00;;;;;;1868695;76;21135;-82
2022/06/24 02:39:02;;;;;;;9.53;6.30;;;31.40;90.00;;;;;;1897609;75;21650;-80
2022/06/24 02:41:33;;;;;;;10.25;6.00;;;31.40;90.30;;;;;;1888901;75;21224;-80
2022/06/24 02:44:04;;;;;;;6.87;5.20;;;31.40;90.30;;;;;;1882239;75;21564;-81
2022/06/24 02:46:36;;;;;;;9.28;5.15;;;31.50;90.10;;;;;;1868175;75;21608;-80
2022/06/24 02:49:07;;;;;;;7.83;5.30;;;31.40;89.90;;;;;;1885392;75;21217;-81
2022/06/24 02:51:37;;;;;;;8.68;5.75;;;31.30;89.80;;;;;;1876111;75;21165;-79
2022/06/24 02:54:09;;;;;;;11.45;5.47;;;31.20;90.30;;;;;;1869719;77;21621;-79
2022/06/24 02:56:40;;;;;;;8.55;4.65;;;31.10;90.40;;;;;;1887853;75;21122;-80
2022/06/24 02:59:12;;;;;;;6.25;4.60;;;31.20;90.40;;;;;;1899621;74;21145;-80
2022/06/24 03:01:44;;;;;;;11.03;4.85;;;31.40;89.50;;;;;;1879507;75;21159;-80
2022/06/24 03:04:15;;;;;;;8.20;4.70;;;31.60;88.80;;;;;;1890025;75;21302;-80
2022/06/24 03:06:46;;;;;;;8.75;5.03;;;31.70;88.50;;;;;;1886029;75;21072;-80
2022/06/24 03:09:17;;;;;;;8.15;5.85;;;31.80;89.20;;;;;;1888016;75;21182;-80
2022/06/24 03:11:48;;;;;;;7.92;5.58;;;32.00;88.10;;;;;;1885832;75;21114;-80
2022/06/24 03:14:18;;;;;;;8.75;5.35;;;32.10;87.90;;;;;;1889320;75;21131;-82
2022/06/24 03:16:49;;;;;;;11.50;5.95;;;32.20;87.70;;;;;;1869268;75;21071;-79
2022/06/24 03:19:20;;;;;;;6.67;5.25;;;32.20;87.70;;;;;;1884597;75;21150;-79
2022/06/24 03:21:52;;;;;;;6.75;5.08;;;32.20;87.20;;;;;;1879097;75;21622;-80
2022/06/24 03:24:23;;;;;;;8.65;4.92;;;32.10;87.20;;;;;;1882259;75;21159;-80
2022/06/24 03:26:54;;;;;;;8.53;4.92;;;32.10;87.30;;;;;;1874184;75;21542;-79
2022/06/24 03:29:25;;;;;;;11.20;5.03;;;32.20;87.80;;;;;;1894524;75;22121;-80
2022/06/24 03:31:56;;;;;;;6.55;4.47;;;32.30;87.10;;;;;;1872852;75;21155;-80
2022/06/24 03:34:27;;;;;;;6.35;4.20;;;32.40;86.80;;;;;;1884866;75;21126;-79
2022/06/24 03:36:58;;;;;;;7.08;4.28;;;32.40;84.30;;;;;;1886074;75;21209;-79
2022/06/24 03:39:29;;;;;;;6.62;4.15;;;32.40;85.30;;;;;;1875816;75;21162;-80
2022/06/24 03:42:00;;;;;;;8.35;4.95;;;32.50;84.90;;;;;;1886690;75;21603;-79
2022/06/24 03:44:32;;;;;;;9.63;4.67;;;32.50;85.30;;;;;;1887787;75;21107;-79
2022/06/24 03:47:03;;;;;;;6.22;5.15;;;32.40;86.20;;;;;;1881948;75;21150;-79
2022/06/24 03:49:34;;;;;;;7.58;5.28;;;32.40;86.70;;;;;;1889780;75;21187;-81
2022/06/24 03:52:05;;;;;;;5.67;4.53;;;32.50;86.40;;;;;;1880497;75;21420;-81
2022/06/24 03:54:37;;;;;;;8.95;4.75;;;32.70;85.50;;;;;;1876448;75;21085;-80
2022/06/24 03:57:08;;;;;;;8.98;4.67;;;32.80;84.40;;;;;;1887333;75;21272;-81
2022/06/24 03:59:39;;;;;;;8.43;4.60;;;32.80;82.30;;;;;;1888679;75;21135;-80
2022/06/24 04:02:10;;;;;;;7.40;5.15;;;32.80;83.40;;;;;;1870798;75;22299;-81
2022/06/24 04:04:41;;;;;;;6.47;4.67;;;32.60;84.50;;;;;;1868956;77;21087;-81
2022/06/24 04:07:12;;;;;;;6.70;4.70;;;32.40;85.20;;;;;;1869841;75;21119;-82
2022/06/24 04:09:45;;;;;;;8.63;4.67;;;32.30;85.00;;;;;;1887329;75;21684;-82
2022/06/24 04:12:27;;;;;;;7.03;4.60;;;32.20;85.00;;;;;;1887157;75;21137;-81
2022/06/24 04:17:31;;;;;;;8.80;4.67;;;32.00;85.20;;;;;;1891803;75;21146;-81
2022/06/24 04:20:02;;;;;;;6.80;4.50;;;31.90;84.70;;;;;;1874387;75;21889;-81
2022/06/24 04:22:33;;;;;;;9.08;5.78;;;31.90;85.60;;;;;;1881249;75;21056;-81
2022/06/24 04:25:05;;;;;;;8.50;5.20;;;31.70;86.50;;;;;;1897918;75;21142;-80
2022/06/24 04:27:36;;;;;;;9.43;6.40;;;31.70;87.20;;;;;;1881871;75;21134;-80
2022/06/24 04:30:09;;;;;;;10.68;5.72;;;31.70;87.50;;;;;;1874673;75;21276;-79
2022/06/24 04:32:41;;;;;;;9.88;5.35;;;31.80;87.70;;;;;;1898138;75;21193;-80
2022/06/24 04:35:12;;;;;;;6.40;4.95;;;31.90;86.80;;;;;;1884346;75;21166;-80
2022/06/24 04:37:44;;;;;;;8.18;4.80;;;32.00;86.70;;;;;;1885746;75;21222;-81
2022/06/24 04:40:15;;;;;;;9.85;5.67;;;31.90;86.90;;;;;;1891820;75;21512;-80
2022/06/24 04:42:47;;;;;;;7.28;5.00;;;31.90;87.50;;;;;;1889026;73;21231;-81
2022/06/24 04:45:18;;;;;;;7.65;4.70;;;31.80;87.50;;;;;;1901366;74;21052;-81
2022/06/24 04:47:49;;;;;;;6.20;4.67;;;31.70;87.60;;;;;;1885733;75;21147;-82
2022/06/24 04:50:20;;;;;;;10.23;4.50;;;31.70;87.20;;;;;;1873265;75;21126;-80
2022/06/24 04:52:51;;;;;;;6.10;4.40;;;31.50;87.40;;;;;;1873610;75;21169;-82
2022/06/24 04:55:25;;;;;;;8.85;4.87;;;31.50;87.70;;;;;;1876987;75;21607;-81
2022/06/24 04:57:58;;;;;;;9.53;4.72;;;31.40;88.00;;;;;;1901462;74;21371;-81
2022/06/24 05:00:28;;;;;;;8.40;5.33;;;31.30;88.90;;;;;;1879757;74;21103;-82
2022/06/24 05:03:00;;;;;;;10.05;5.67;;;31.30;90.20;;;;;;1871712;76;21126;-80
2022/06/24 05:05:31;;;;;;;9.53;5.85;;;31.20;90.60;;;;;;1873302;75;21261;-81
2022/06/24 05:08:02;;;;;;;9.55;5.85;;;31.10;91.00;;;;;;1872350;75;21268;-81
2022/06/24 05:10:33;;;;;;;7.00;5.17;;;31.00;91.10;;;;;;1883866;75;21122;-80
2022/06/24 05:13:04;;;;;;;8.25;4.85;;;31.00;91.50;;;;;;1845171;77;21703;-80
2022/06/24 05:15:36;;;;;;;7.85;4.87;;;30.90;91.20;;;;;;1880678;75;21093;-81
2022/06/24 05:18:08;;;;;;;8.43;4.70;;;30.70;91.20;;;;;;1894250;75;21170;-81
2022/06/24 05:20:38;;;;;;;9.90;4.83;;;30.70;91.30;;;;;;1887590;75;21115;-81
2022/06/24 05:23:09;;;;;;;7.58;4.37;;;30.70;91.00;;;;;;1875695;75;21161;-81
2022/06/24 05:25:40;;;;;;;6.87;5.20;;;30.70;91.00;;;;;;1882463;75;21139;-81
2022/06/24 05:28:12;;;;;;;6.70;4.40;;;30.70;91.00;;;;;;1886572;75;21135;-81
2022/06/24 05:30:42;;;;;;;11.93;4.80;;;30.70;90.90;;;;;;1888210;75;21111;-80
2022/06/24 05:33:13;;;;;;;10.80;5.10;;;30.70;90.70;;;;;;1876254;75;21186;-81
2022/06/24 05:35:44;;;;;;;8.80;4.50;;;30.60;91.50;;;;;;1894089;75;21091;-80
2022/06/24 05:38:17;;;;;;;8.30;3.95;;;30.60;91.40;;;;;;1875616;75;21575;-80
2022/06/24 05:40:51;;;;;;;6.00;3.22;;;30.60;91.60;;;;;;1877914;74;21159;-81
2022/06/24 05:43:22;;;;;;;6.95;3.58;;;30.40;91.00;;;;;;1892659;74;21180;-80
2022/06/24 05:45:54;;;;;;;12.88;3.50;;;30.30;91.70;;;;;;1861929;75;21203;-79
2022/06/24 05:48:27;;;;;;;10.70;4.22;;;30.10;91.80;;;;;;1875738;76;21513;-81
2022/06/24 05:50:58;;;;;;;11.38;5.22;;;30.00;92.60;;;;;;1854326;76;21179;-80
2022/06/24 05:56:02;;;;;;;9.85;5.50;;;29.60;94.30;;;;;;1880030;76;21092;-81
2022/06/24 05:58:33;;;;;;;12.58;5.87;;;29.50;94.40;;;;;;1881530;75;21779;-81
2022/06/24 06:01:07;;;;;;;12.03;6.67;;;29.20;94.90;;;;;;1855123;75;21183;-81
2022/06/24 06:03:38;;;;;;;10.40;5.85;;;29.10;95.60;;;;;;1858810;77;21641;-80
2022/06/24 06:06:10;;;;;;;12.07;6.33;;;29.00;95.20;;;;;;1848972;77;21186;-80
2022/06/24 06:08:41;;;;;;;11.20;6.20;;;28.90;96.20;;;;;;1859084;77;21551;-81
2022/06/24 06:11:14;;;;;;;11.48;6.65;;;28.70;95.90;;;;;;1871354;76;21131;-80
2022/06/24 06:13:48;;;;;;;9.78;5.92;;;28.80;96.80;;;;;;1880808;76;21611;-80
2022/06/24 06:16:21;;;;;;;14.35;6.95;;;28.70;97.00;;;;;;1881005;76;22386;-81
2022/06/24 06:18:53;;;;;;;12.00;7.10;;;28.70;97.50;;;;;;1856757;76;21178;-81
2022/06/24 06:21:24;;;;;;;12.43;8.00;;;28.70;97.90;;;;;;1859265;76;21179;-81
2022/06/24 06:23:55;;;;;;;10.50;7.85;;;28.80;98.60;;;;;;1815733;79;21236;-81
2022/06/24 06:26:26;;;;;;;11.20;7.92;;;28.80;99.00;;;;;;1849034;76;21233;-82
2022/06/24 06:28:57;;;;;;;9.35;7.67;;;28.80;98.90;;;;;;1858488;76;21146;-81
2022/06/24 06:31:28;;;;;;;13.93;9.33;;;28.80;98.40;;;;;;1890204;75;21579;-81
2022/06/24 06:33:59;;;;;;;12.00;7.35;;;28.80;98.20;;;;;;1880538;76;21709;-81
2022/06/24 06:36:30;;;;;;;13.38;7.45;;;28.80;98.20;;;;;;1890093;76;21155;-82
2022/06/24 06:39:01;;;;;;;10.95;7.47;;;28.80;97.80;;;;;;1880817;76;21218;-81
2022/06/24 06:41:32;;;;;;;9.65;6.67;;;28.80;98.10;;;;;;1890830;76;21143;-81
2022/06/24 06:44:03;;;;;;;11.90;6.42;;;28.90;98.30;;;;;;1863753;76;21783;-79
2022/06/24 06:46:34;;;;;;;14.40;9.53;;;29.00;98.50;;;;;;1898075;75;21092;-80
2022/06/24 06:49:05;;;;;;;12.18;8.85;;;29.20;98.20;;;;;;1901009;75;21087;-81
2022/06/24 06:51:36;;;;;;;11.43;6.28;;;29.30;96.90;;;;;;1898406;75;21103;-81
2022/06/24 06:54:07;;;;;;;14.90;7.40;;;29.50;97.10;;;;;;1900827;75;21083;-81
2022/06/24 06:56:38;;;;;;;10.63;6.70;;;29.70;96.80;;;;;;1900341;75;21092;-81
2022/06/24 06:59:10;;;;;;;8.93;6.47;;;29.90;96.40;;;;;;1901116;75;21225;-81
2022/06/24 07:01:41;;;;;;;8.25;6.03;;;30.10;96.80;;;;;;1890693;75;21563;-80
2022/06/24 07:04:12;;;;;;;8.48;5.83;;;30.40;96.00;;;;;;1885199;75;21143;-80
2022/06/24 07:06:43;;;;;;;7.35;5.15;;;30.60;95.30;;;;;;1901016;75;21159;-81
2022/06/24 07:09:15;;;;;;;7.12;5.33;;;30.80;95.10;;;;;;1901151;75;21155;-81
2022/06/24 07:11:46;;;;;;;7.20;4.25;;;30.90;94.20;;;;;;1901102;75;21197;-81
2022/06/24 07:14:16;;;;;;;8.80;4.60;;;31.10;92.50;;;;;;1901147;75;21567;-81
2022/06/24 07:16:47;;;;;;;9.58;4.47;;;31.20;92.70;;;;;;1900746;75;21045;-82
2022/06/24 07:19:19;;;;;;;4.03;3.30;;;31.40;93.00;;;;;;1877718;75;21672;-81
2022/06/24 07:21:50;;;;;;;5.92;3.80;;;31.50;91.80;;;;;;1868945;75;21075;-81
2022/06/24 07:24:21;;;;;;;6.65;4.22;;;31.70;91.60;;;;;;1874932;75;21150;-82
2022/06/24 07:26:52;;;;;;;8.05;4.35;;;31.80;91.30;;;;;;1881909;75;21059;-83
2022/06/24 07:29:22;;;;;;;7.05;4.03;;;31.90;91.30;;;;;;1883207;75;21201;-82
2022/06/24 07:31:53;;;;;;;8.35;3.80;;;31.90;90.60;;;;;;1868628;75;21269;-81
2022/06/24 07:34:27;;;;;;;8.40;4.10;;;32.00;90.60;;;;;;1869782;75;21283;-79
2022/06/24 07:37:00;;;;;;;6.67;4.08;;;32.00;90.40;;;;;;1884856;75;21204;-80
2022/06/24 07:39:32;;;;;;;7.22;4.78;;;32.00;90.50;;;;;;1887255;75;21134;-81
2022/06/24 07:42:03;;;;;;;5.40;3.95;;;32.10;91.30;;;;;;1883690;75;21615;-81
2022/06/24 07:44:34;;;;;;;7.40;4.37;;;32.10;89.80;;;;;;1877211;75;21214;-83
2022/06/24 07:47:05;;;;;;;5.45;4.15;;;32.20;89.30;;;;;;1854540;75;21716;-82
2022/06/24 07:49:37;;;;;;;6.78;4.20;;;32.20;88.80;;;;;;1860350;76;21535;-82
2022/06/24 07:52:10;;;;;;;5.15;3.67;;;32.20;87.60;;;;;;1864886;76;21404;-81
2022/06/24 07:54:41;;;;;;;5.17;3.87;;;32.20;89.00;;;;;;1868808;76;21123;-82
2022/06/24 07:57:12;;;;;;;5.78;4.05;;;32.20;89.30;;;;;;1879439;76;21677;-82
2022/06/24 07:59:45;;;;;;;7.05;4.28;;;32.30;89.40;;;;;;1861078;76;21536;-82
2022/06/24 08:02:15;;;;;;;7.83;4.67;;;32.30;90.50;;;;;;1849892;76;21709;-81
2022/06/24 08:04:46;;;;;;;7.37;4.47;;;32.40;89.30;;;;;;1858053;76;21155;-80
2022/06/24 08:07:17;;;;;;;10.75;4.45;;;32.50;89.50;;;;;;1859041;76;21111;-81
2022/06/24 08:09:49;;;;;;;6.03;4.40;;;32.50;89.10;;;;;;1854404;76;21629;-81
2022/06/24 08:12:20;;;;;;;6.00;4.20;;;32.50;88.70;;;;;;1870182;76;21080;-82
2022/06/24 08:14:51;;;;;;;7.37;4.65;;;32.50;88.10;;;;;;1875639;76;21297;-81
2022/06/24 08:17:22;;;;;;;9.88;5.25;;;32.50;88.20;;;;;;1859149;77;21248;-82
2022/06/24 08:19:53;;;;;;;9.93;4.75;;;32.50;88.70;;;;;;1851142;76;21088;-81
2022/06/24 08:22:24;;;;;;;8.85;4.25;;;32.50;89.40;;;;;;1872596;76;21173;-81
2022/06/24 08:24:55;;;;;;;8.60;4.37;;;32.40;89.00;;;;;;1866857;76;21061;-83
2022/06/24 08:27:28;;;;;;;8.40;4.53;;;32.40;89.50;;;;;;1853701;76;21158;-83
2022/06/24 08:29:59;;;;;;;8.40;5.00;;;32.40;90.00;;;;;;1868017;76;21182;-80
2022/06/24 08:32:30;;;;;;;11.88;5.28;;;32.40;88.80;;;;;;1859061;77;21139;-80
2022/06/24 08:35:02;;;;;;;8.65;5.00;;;32.40;89.30;;;;;;1850290;76;22130;-81
2022/06/24 08:37:34;;;;;;;6.58;5.45;;;32.40;89.30;;;;;;1810419;79;21609;-80
2022/06/24 08:40:06;;;;;;;10.15;5.35;;;32.40;90.00;;;;;;1850720;76;21527;-81
2022/06/24 08:42:39;;;;;;;14.43;5.28;;;32.40;90.00;;;;;;1858025;76;21213;-80
2022/06/24 08:45:11;;;;;;;8.95;5.45;;;32.40;90.20;;;;;;1881882;76;21147;-80
2022/06/24 08:47:42;;;;;;;10.20;5.20;;;32.40;90.00;;;;;;1857813;76;21156;-81
2022/06/24 08:50:14;;;;;;;9.10;5.50;;;32.30;90.00;;;;;;1872923;76;21140;-81
2022/06/24 08:52:47;;;;;;;9.45;5.97;;;32.20;90.10;;;;;;1872536;76;21159;-80
2022/06/24 08:55:21;;;;;;;7.05;4.87;;;32.10;90.30;;;;;;1835221;78;21170;-80
2022/06/24 08:57:52;;;;;;;7.28;4.85;;;32.00;89.70;;;;;;1881518;76;21128;-82
2022/06/24 09:00:24;;;;;;;7.42;4.97;;;31.90;89.80;;;;;;1880073;76;21140;-82
2022/06/24 09:02:55;;;;;;;8.95;4.83;;;31.90;89.60;;;;;;1854065;76;21147;-79
2022/06/24 09:05:27;;;;;;;8.58;4.37;;;31.80;89.50;;;;;;1849578;77;21128;-81
2022/06/24 09:08:01;;;;;;;6.58;4.33;;;31.70;89.50;;;;;;1860524;76;21183;-82
2022/06/24 09:10:32;;;;;;;8.03;4.50;;;31.70;89.90;;;;;;1879661;76;21104;-81
2022/06/24 09:13:03;;;;;;;11.12;5.00;;;31.60;90.10;;;;;;1890278;76;21112;-81
2022/06/24 09:15:34;;;;;;;9.45;5.15;;;31.50;90.00;;;;;;1878610;76;21592;-70
2022/06/24 09:18:05;;;;;;;8.80;5.08;;;31.50;90.00;;;;;;1858374;76;21627;-71
2022/06/24 09:20:37;;;;;;;7.92;4.92;;;31.40;90.20;;;;;;1849257;77;21134;-71
2022/06/24 09:23:10;;;;;;;8.65;4.95;;;31.40;90.40;;;;;;1849332;77;21186;-71
2022/06/24 09:26:01;;;;;;;7.90;5.10;;;31.30;90.50;;;;;;1849443;77;21234;-70
2022/06/24 09:28:34;;;;;;;5.85;4.17;;;31.30;90.90;;;;;;1923439;74;21107;-70
2022/06/24 09:31:07;;;;;;;6.65;4.05;;;31.30;90.90;;;;;;1883376;75;21132;-71
2022/06/24 09:33:41;;;;;;;7.62;4.45;;;31.10;90.70;;;;;;1881352;76;21116;-72
2022/06/24 09:36:13;;;;;;;7.47;4.37;;;31.00;90.60;;;;;;1880531;75;21200;-73
2022/06/24 09:38:46;;;;;;;10.60;5.37;;;30.90;90.80;;;;;;1881453;76;21125;-72
2022/06/24 09:41:19;;;;;;;9.00;5.05;;;30.80;91.10;;;;;;1879981;76;21510;-72
2022/06/24 09:43:52;;;;;;;8.33;5.53;;;30.70;91.30;;;;;;1881753;75;21566;-72
2022/06/24 09:46:25;;;;;;;7.28;4.80;;;30.70;91.20;;;;;;1881296;76;21106;-72
2022/06/24 09:48:58;;;;;;;8.60;4.50;;;30.60;91.00;;;;;;1881371;76;21578;-73
2022/06/24 09:51:30;;;;;;;7.55;4.53;;;30.60;90.90;;;;;;1880536;76;21626;-72
2022/06/24 09:54:02;;;;;;;7.47;5.00;;;30.50;91.00;;;;;;1881138;76;21117;-73
2022/06/24 09:56:35;;;;;;;8.20;4.85;;;30.50;90.80;;;;;;1881262;76;21213;-73
2022/06/24 10:01:40;;;;;;;9.43;5.87;;;30.40;90.80;;;;;;1879519;76;21128;-73
2022/06/24 10:04:13;;;;;;;10.08;6.28;;;30.30;90.80;;;;;;1890403;76;21127;-73
2022/06/24 10:06:47;;;;;;;10.93;6.60;;;30.30;91.00;;;;;;1880927;76;21131;-73
2022/06/24 10:09:20;;;;;;;13.25;7.47;;;30.30;91.10;;;;;;1881176;76;21222;-70
2022/06/24 10:11:56;;;;;;;17.12;6.65;;;30.30;91.00;;;;;;1881154;76;21611;-71
2022/06/24 10:14:27;;;;;;;11.10;5.95;;;30.30;91.00;;;;;;1881197;76;21143;-72
2022/06/24 10:17:00;;;;;;;9.13;5.20;;;30.20;91.00;;;;;;1881136;76;21603;-73
2022/06/24 10:19:32;;;;;;;7.10;5.22;;;30.20;90.70;;;;;;1881271;76;21131;-72
2022/06/24 10:22:04;;;;;;;9.48;5.30;;;30.20;90.80;;;;;;1881235;76;21112;-71
2022/06/24 10:24:37;;;;;;;8.38;5.17;;;30.20;91.00;;;;;;1881082;76;21190;-71
2022/06/24 10:27:08;;;;;;;6.55;4.30;;;30.10;90.90;;;;;;1882397;75;21183;-71
2022/06/24 10:29:39;;;;;;;8.03;4.90;;;30.10;90.90;;;;;;1912088;75;21150;-72
2022/06/24 10:32:11;;;;;;;8.48;4.53;;;30.10;91.00;;;;;;1912119;75;21545;-72
2022/06/24 10:34:43;;;;;;;9.48;4.78;;;30.10;91.50;;;;;;1912182;75;21560;-73
2022/06/24 10:37:16;;;;;;;6.00;4.55;;;30.00;91.20;;;;;;1912006;75;21072;-72
2022/06/24 10:39:51;;;;;;;5.35;3.95;;;30.10;91.30;;;;;;1909852;75;21190;-72
2022/06/24 10:42:24;;;;;;;10.50;4.65;;;30.00;91.10;;;;;;1912404;75;21049;-73
2022/06/24 10:44:57;;;;;;;9.53;4.28;;;30.00;91.20;;;;;;1912188;75;21236;-72
2022/06/24 10:47:31;;;;;;;9.08;3.85;;;30.10;91.20;;;;;;1912146;75;21488;-73
2022/06/24 10:50:06;;;;;;;6.78;4.00;;;30.10;91.00;;;;;;1911673;75;21061;-73
2022/06/24 10:52:39;;;;;;;7.87;4.30;;;30.10;90.60;;;;;;1911861;75;21151;-73
2022/06/24 10:55:13;;;;;;;7.12;4.12;;;30.00;90.70;;;;;;1911023;75;21643;-73
2022/06/24 10:57:46;;;;;;;7.53;4.37;;;30.10;90.60;;;;;;1911999;75;21540;-72
2022/06/24 11:00:19;;;;;;;6.55;3.75;;;30.00;90.60;;;;;;1912121;75;21631;-72
2022/06/24 11:02:53;;;;;;;7.92;4.10;;;30.10;90.20;;;;;;1911379;75;21155;-72
2022/06/24 11:05:26;;;;;;;8.43;4.33;;;30.10;90.70;;;;;;1891854;75;21203;-72
2022/06/24 11:07:57;;;;;;;9.93;4.30;;;30.00;90.60;;;;;;1883300;75;21167;-72
2022/06/24 11:10:30;;;;;;;8.88;4.22;;;30.00;90.90;;;;;;1881864;75;21130;-74
2022/06/24 11:13:03;;;;;;;7.33;4.60;;;30.00;90.90;;;;;;1801008;78;21165;-72
2022/06/24 11:15:36;;;;;;;11.03;4.50;;;30.00;91.10;;;;;;1879777;76;21204;-72
2022/06/24 11:18:09;;;;;;;11.45;4.50;;;30.00;91.00;;;;;;1833869;76;21142;-72
2022/06/24 11:20:42;;;;;;;7.17;4.58;;;30.00;91.20;;;;;;1886827;75;21056;-73
2022/06/24 11:23:15;;;;;;;13.53;4.65;;;30.00;91.30;;;;;;1906471;75;21049;-73
2022/06/24 11:25:49;;;;;;;10.60;4.42;;;30.00;91.00;;;;;;1906231;75;21115;-72
2022/06/24 11:28:23;;;;;;;11.05;4.50;;;30.00;91.00;;;;;;1895702;73;21068;-72
2022/06/24 11:30:56;;;;;;;10.08;4.20;;;30.00;90.90;;;;;;1884662;76;21187;-72
2022/06/24 11:33:27;;;;;;;8.75;4.60;;;30.00;90.90;;;;;;1881240;76;21162;-72
2022/06/24 11:36:00;;;;;;;7.65;4.42;;;30.00;90.80;;;;;;1887008;75;21178;-71
2022/06/24 11:38:36;;;;;;;9.25;4.45;;;30.00;90.80;;;;;;1884083;75;21522;-72
2022/06/24 11:41:05;;;;;;;9.78;5.80;;;29.90;91.00;;;;;;1881621;75;21066;-72
2022/06/24 11:43:37;;;;;;;12.33;5.08;;;29.90;91.40;;;;;;1876251;76;21236;-72
2022/06/24 11:46:11;;;;;;;9.60;5.03;;;29.90;91.50;;;;;;1899476;75;21076;-71
2022/06/24 11:48:42;;;;;;;12.50;5.78;;;29.90;91.50;;;;;;1923715;74;21124;-72
2022/06/24 11:51:26;;;;;;;11.53;5.85;;;29.90;91.60;;;;;;1908351;75;21741;-72
2022/06/24 11:53:59;;;;;;;10.15;5.50;;;29.80;92.00;;;;;;1881441;75;21151;-70
2022/06/24 11:56:33;;;;;;;10.75;5.65;;;29.80;92.10;;;;;;1880327;75;21176;-73
2022/06/24 11:59:06;;;;;;;11.38;5.65;;;29.70;92.30;;;;;;1909359;75;21139;-73
2022/06/24 12:01:38;;;;;;;9.03;5.70;;;29.70;92.40;;;;;;1880485;75;21536;-72
2022/06/24 12:04:11;;;;;;;8.03;4.95;;;29.70;92.50;;;;;;1881310;76;21217;-72
2022/06/24 12:06:45;;;;;;;6.90;5.00;;;29.70;92.40;;;;;;1881240;76;21233;-73
2022/06/24 12:09:17;;;;;;;8.85;5.67;;;29.60;92.20;;;;;;1888386;74;21098;-71
2022/06/24 12:11:49;;;;;;;13.95;6.08;;;29.50;92.30;;;;;;1883508;75;21163;-71
2022/06/24 12:14:21;;;;;;;8.80;5.30;;;29.50;92.60;;;;;;1890646;76;21528;-71
2022/06/24 12:16:54;;;;;;;9.45;5.50;;;29.40;92.50;;;;;;1881253;76;21846;-71
2022/06/24 12:19:27;;;;;;;9.80;5.10;;;29.40;92.50;;;;;;1880213;75;21113;-71
2022/06/24 12:22:00;;;;;;;6.95;4.00;;;29.40;92.40;;;;;;1881143;76;21121;-72
2022/06/24 12:24:31;;;;;;;7.00;4.40;;;29.40;92.30;;;;;;1881283;75;21567;-71
2022/06/24 12:27:04;;;;;;;7.92;4.37;;;29.30;92.20;;;;;;1880859;76;21607;-71
2022/06/24 12:29:37;;;;;;;8.28;5.60;;;29.30;92.20;;;;;;1880552;76;21229;-72
2022/06/24 12:32:10;;;;;;;11.22;5.30;;;29.30;92.40;;;;;;1823834;78;21671;-71
2022/06/24 12:34:42;;;;;;;7.05;5.45;;;29.30;93.10;;;;;;1882594;75;21622;-71
2022/06/24 12:37:16;;;;;;;9.05;5.72;;;29.20;92.90;;;;;;1891000;75;21552;-72
2022/06/24 12:39:47;;;;;;;10.03;6.20;;;29.20;93.00;;;;;;1889418;75;21559;-73
2022/06/24 12:42:20;;;;;;;14.23;8.80;;;29.20;93.00;;;;;;1885121;75;21634;-72
2022/06/24 12:44:55;;;;;;;6.78;4.85;;;29.10;93.80;;;;;;1894727;75;21130;-72
2022/06/24 12:52:35;;;;;;;6.90;5.08;;;29.00;94.20;;;;;;1886225;75;21139;-70
2022/06/24 12:55:08;;;;;;;7.28;4.58;;;29.00;94.10;;;;;;1904785;75;21139;-72
2022/06/24 12:57:40;;;;;;;7.30;4.60;;;28.90;93.70;;;;;;1884953;75;21143;-72
2022/06/24 13:00:13;;;;;;;11.08;5.83;;;28.80;93.90;;;;;;1881316;75;21096;-72
2022/06/24 13:02:47;;;;;;;12.25;5.33;;;28.70;93.90;;;;;;1882807;75;21171;-73
2022/06/24 13:05:19;;;;;;;13.60;4.72;;;28.70;93.80;;;;;;1888381;75;21143;-71
2022/06/24 13:07:51;;;;;;;9.90;5.05;;;28.70;94.10;;;;;;1830454;77;21245;-72
2022/06/24 13:10:23;;;;;;;9.03;4.87;;;28.70;94.10;;;;;;1894772;75;21189;-72
2022/06/24 13:12:54;;;;;;;8.95;4.65;;;28.70;94.00;;;;;;1894879;75;21142;-72
2022/06/24 13:15:26;;;;;;;8.30;4.53;;;28.80;94.00;;;;;;1883319;75;21203;-72
2022/06/24 13:17:57;;;;;;;9.13;4.78;;;28.70;93.90;;;;;;1912213;75;21115;-72
2022/06/24 13:20:28;;;;;;;8.00;4.50;;;28.80;93.90;;;;;;1909727;75;21088;-71
2022/06/24 13:22:59;;;;;;;8.85;4.83;;;28.70;93.90;;;;;;1879685;76;21125;-71